Terminal Aerodrome Forecast
Issued by NWS Knoxville/Tri Cities, TN

Home | Current Version | Previous Version | Text Only | Print | Product List | Glossary On
Versions: 1 2 3 4 5 6 7 8 9 10 11 12 13 14 15 16 17 18
000
FTUS44 KMRX 301732
TAFTRI
TAF
KTRI 301732Z 3018/0118 VRB03KT P6SM VCSH OVC080
      TEMPO 3019/3023 5SM -TSRA BKN040CB
     FM302300 18008KT P6SM VCTS BKN050CB
     FM010500 16003KT P6SM VCTS BKN035CB
      TEMPO 0105/0108 5SM -TSRA BKN035CB
     FM010900 VRB03KT 4SM -SHRA BR OVC050
     FM011600 22008KT P6SM -RA BKN040=

USA.gov is the U.S. government's official web portal to all federal, state and local government web resources and services.